Time;durP1;ratioP1;P1;durP2;ratioP2;P2;SDS_P1;SDS_P2;PMS_P1;PMS_P2;Temp;Humidity;BMP_temperature;BMP_pressure;BME280_temperature;BME280_humidity;BME280_pressure;Samples;Min_cycle;Max_cycle;Signal;HPM_P1;HPM_P2
2024/03/24 00:02:05;;;;;;;17.40;11.77;;;;;;;30.13;80.63;101028.34;5019441;28;69923;-32
2024/03/24 00:04:35;;;;;;;20.87;13.00;;;;;;;30.19;79.91;101047.25;5028494;28;66391;-33
2024/03/24 00:07:04;;;;;;;22.88;12.63;;;;;;;30.26;79.93;101045.41;5039395;28;69490;-33
2024/03/24 00:09:33;;;;;;;17.92;14.27;;;;;;;30.29;81.11;101046.84;5031646;28;66423;-32
2024/03/24 00:12:02;;;;;;;27.75;14.63;;;;;;;30.32;79.82;101051.00;5033252;28;69517;-33
2024/03/24 00:14:31;;;;;;;15.95;13.45;;;;;;;30.28;80.94;101046.03;5030558;28;66536;-32
2024/03/24 00:16:59;;;;;;;19.55;12.60;;;;;;;30.36;79.98;101053.06;5037451;28;69692;-32
2024/03/24 00:19:29;;;;;;;15.23;12.80;;;;;;;30.36;81.09;101054.94;5020882;28;66784;-33
2024/03/24 00:21:58;;;;;;;22.63;13.23;;;;;;;30.39;80.82;101054.50;5031886;28;70228;-32
2024/03/24 00:24:26;;;;;;;18.25;11.88;;;;;;;30.37;81.67;101059.28;5049233;28;65902;-33
2024/03/24 00:26:55;;;;;;;16.23;12.15;;;;;;;30.36;82.15;101071.19;5031941;28;68822;-33
2024/03/24 00:29:24;;;;;;;19.33;12.82;;;;;;;30.43;81.43;101074.72;5019939;28;65873;-33
2024/03/24 00:31:53;;;;;;;19.65;12.25;;;;;;;30.47;81.28;101081.34;5029320;28;69936;-33
2024/03/24 00:34:23;;;;;;;16.70;11.40;;;;;;;30.52;81.62;101095.09;5024865;28;66441;-33
2024/03/24 00:36:51;;;;;;;21.58;12.07;;;;;;;30.54;81.84;101101.13;5052042;28;70525;-32
2024/03/24 00:39:20;;;;;;;14.27;11.30;;;;;;;30.50;82.85;101099.88;5041459;28;66909;-32
2024/03/24 00:41:49;;;;;;;14.80;10.65;;;;;;;30.54;82.42;101103.81;5047407;28;70120;-32
2024/03/24 00:44:18;;;;;;;16.15;10.35;;;;;;;30.33;82.36;101071.59;5043641;28;66618;-32
2024/03/24 00:46:47;;;;;;;12.52;9.88;;;;;;;30.63;81.87;101118.78;5053678;28;70350;-32
2024/03/24 00:49:16;;;;;;;16.08;9.50;;;;;;;30.64;82.39;101125.03;5023977;28;66234;-33
2024/03/24 00:51:49;;;;;;;15.45;9.55;;;;;;;30.66;82.87;101139.19;5020801;28;70399;-33
2024/03/24 00:54:18;;;;;;;12.88;9.32;;;;;;;30.69;82.96;101136.06;5031788;28;66281;-32
2024/03/24 00:56:47;;;;;;;24.70;9.52;;;;;;;30.69;82.66;101134.19;5031903;28;69185;-33
2024/03/24 00:59:16;;;;;;;20.42;10.32;;;;;;;30.69;83.00;101139.59;5023829;28;65807;-33
2024/03/24 01:01:45;;;;;;;16.58;9.65;;;;;;;30.69;83.50;101145.00;5036889;28;70146;-33
2024/03/24 01:04:15;;;;;;;18.98;8.95;;;;;;;30.76;83.13;101160.41;5023890;28;65461;-33
2024/03/24 01:06:43;;;;;;;18.73;9.18;;;;;;;30.71;83.42;101152.94;5019053;28;69856;-33
2024/03/24 01:09:16;;;;;;;12.85;10.20;;;;;;;30.76;83.23;101154.97;5029341;28;65310;-34
2024/03/24 01:11:47;;;;;;;11.18;9.40;;;;;;;30.80;83.28;101167.94;5000743;28;69635;-34
2024/03/24 01:14:16;;;;;;;18.10;9.63;;;;;;;30.83;83.46;101163.97;5024044;28;65914;-33
2024/03/24 01:16:44;;;;;;;18.23;9.50;;;;;;;30.82;83.26;101159.59;5020382;28;69479;-33
2024/03/24 01:19:13;;;;;;;11.32;9.80;;;;;;;30.84;82.69;101168.31;5019179;28;66084;-33
2024/03/24 01:21:42;;;;;;;10.88;8.77;;;;;;;30.83;83.02;101163.97;5028626;28;70926;-32
2024/03/24 01:24:11;;;;;;;17.50;11.30;;;;;;;30.83;82.98;101161.25;5020042;28;65721;-33
2024/03/24 01:26:40;;;;;;;16.08;10.65;;;;;;;30.87;83.67;101173.31;5024171;28;70611;-32
2024/03/24 01:29:10;;;;;;;15.68;10.90;;;;;;;30.91;82.81;101174.56;5028096;28;65820;-33
2024/03/24 01:31:38;;;;;;;14.13;10.88;;;;;;;30.94;82.59;101171.41;5021455;28;70789;-33
2024/03/24 01:34:08;;;;;;;13.80;10.15;;;;;;;30.91;83.27;101159.13;5026551;28;66434;-33
2024/03/24 01:36:36;;;;;;;18.13;11.55;;;;;;;30.97;83.22;101168.28;5024408;28;70044;-33
2024/03/24 01:39:06;;;;;;;16.63;10.10;;;;;;;31.01;83.00;101176.81;5030697;28;66666;-34
2024/03/24 01:41:35;;;;;;;15.27;10.30;;;;;;;31.01;82.87;101174.94;5009009;28;69798;-33
2024/03/24 01:44:04;;;;;;;16.85;10.70;;;;;;;31.06;82.73;101183.25;5026693;28;67158;-33
2024/03/24 01:46:33;;;;;;;14.98;10.07;;;;;;;30.92;83.04;101152.69;5031472;28;70459;-34
2024/03/24 01:49:03;;;;;;;15.80;9.68;;;;;;;31.10;83.46;101175.53;5027831;28;66603;-34
2024/03/24 01:51:35;;;;;;;22.90;10.25;;;;;;;31.06;83.48;101156.16;5026449;28;69588;-33
2024/03/24 01:54:05;;;;;;;24.25;9.57;;;;;;;31.13;82.68;101178.66;5032855;28;65774;-34
2024/03/24 01:56:34;;;;;;;15.25;10.50;;;;;;;31.15;82.33;101187.41;5022728;28;69219;-33
2024/03/24 01:59:04;;;;;;;15.10;10.30;;;;;;;31.16;83.31;101178.22;5042907;28;65841;-33
2024/03/24 02:01:35;;;;;;;21.33;10.98;;;;;;;31.18;82.44;101169.88;5023821;28;70345;-33
2024/03/24 02:04:10;;;;;;;18.80;10.20;;;;;;;31.09;83.46;101154.88;5038559;28;65826;-33
2024/03/24 02:06:39;;;;;;;13.95;10.05;;;;;;;31.28;82.37;101174.81;5038516;28;69362;-34
2024/03/24 02:09:09;;;;;;;13.48;10.20;;;;;;;31.30;82.67;101172.72;5038120;28;64455;-34
2024/03/24 02:11:38;;;;;;;15.68;9.40;;;;;;;31.33;82.74;101177.72;5028079;28;70083;-33
2024/03/24 02:14:06;;;;;;;16.73;10.20;;;;;;;31.29;82.50;101154.81;5024050;28;65800;-33
2024/03/24 02:16:35;;;;;;;21.83;10.68;;;;;;;31.37;82.06;101168.13;5031002;28;70345;-34
2024/03/24 02:19:04;;;;;;;17.52;12.57;;;;;;;31.37;81.95;101168.13;5053324;28;66994;-34
2024/03/24 02:21:34;;;;;;;28.67;18.80;;;;;;;31.43;82.16;101171.88;5037505;28;69649;-36
2024/03/24 02:24:03;;;;;;;23.77;17.27;;;;;;;31.49;82.32;101171.00;5037004;28;66067;-34
2024/03/24 02:26:32;;;;;;;24.63;14.55;;;;;;;31.50;81.95;101170.75;5037524;28;70361;-35
2024/03/24 02:29:01;;;;;;;20.33;15.43;;;;;;;31.56;81.71;101167.19;5036844;28;65589;-36
2024/03/24 02:31:30;;;;;;;16.48;14.40;;;;;;;31.60;81.42;101167.59;5037817;28;70821;-34
2024/03/24 02:33:59;;;;;;;19.35;14.50;;;;;;;31.63;81.70;101161.72;5031004;28;66274;-34
2024/03/24 02:36:28;;;;;;;22.50;13.95;;;;;;;31.66;81.63;101160.47;5000285;28;70805;-33
2024/03/24 02:38:57;;;;;;;14.77;13.32;;;;;;;31.67;81.32;101157.50;5027938;28;66569;-34
2024/03/24 02:41:26;;;;;;;21.48;12.88;;;;;;;31.63;81.06;101137.31;5026825;28;69968;-34
2024/03/24 02:43:54;;;;;;;15.75;13.07;;;;;;;31.74;81.11;101146.63;5030815;28;66547;-33
2024/03/24 02:46:24;;;;;;;15.98;13.13;;;;;;;31.75;80.90;101132.00;5024019;28;70260;-33
2024/03/24 02:48:52;;;;;;;17.40;13.00;;;;;;;31.80;80.61;101140.31;5042589;28;65466;-33
2024/03/24 02:51:21;;;;;;;16.65;12.30;;;;;;;31.82;80.90;101136.34;5022522;28;70209;-34
2024/03/24 02:53:50;;;;;;;13.63;12.23;;;;;;;31.81;80.72;101121.09;5010074;28;65437;-33
2024/03/24 02:56:19;;;;;;;12.70;11.60;;;;;;;31.87;80.56;101130.22;5020043;28;70247;-33
2024/03/24 02:58:48;;;;;;;12.13;11.10;;;;;;;31.77;80.06;101094.66;5022350;28;66751;-34
2024/03/24 03:01:20;;;;;;;12.07;10.85;;;;;;;31.79;80.44;101095.28;5054856;28;70588;-33
2024/03/24 03:03:49;;;;;;;11.85;10.73;;;;;;;31.98;80.15;101123.28;5025309;28;65810;-35
2024/03/24 03:06:18;;;;;;;11.57;10.40;;;;;;;32.00;80.23;101113.88;5028319;28;70365;-36
2024/03/24 03:08:47;;;;;;;13.85;10.45;;;;;;;32.02;80.13;101105.53;5051125;28;65926;-34
2024/03/24 03:11:16;;;;;;;15.32;10.85;;;;;;;32.05;79.63;101105.91;5047093;28;69393;-34
2024/03/24 03:13:45;;;;;;;17.10;10.43;;;;;;;32.08;79.93;101112.78;5023386;28;65935;-35
2024/03/24 03:16:14;;;;;;;14.18;10.18;;;;;;;32.11;79.90;101106.91;5029289;28;70111;-34
2024/03/24 03:18:43;;;;;;;13.40;9.93;;;;;;;32.09;79.97;101100.03;5039950;28;66300;-37
2024/03/24 03:21:12;;;;;;;9.73;8.55;;;;;;;32.14;80.03;101102.91;5005477;28;69166;-35
2024/03/24 03:23:41;;;;;;;15.00;9.25;;;;;;;32.18;79.53;101101.41;5043088;28;67526;-33
2024/03/24 03:26:10;;;;;;;9.55;8.65;;;;;;;32.20;79.59;101107.44;5034016;28;69438;-34
2024/03/24 03:28:40;;;;;;;9.60;8.68;;;;;;;32.23;79.74;101101.56;5026722;28;66342;-33
2024/03/24 03:31:08;;;;;;;14.13;8.88;;;;;;;32.22;79.40;101089.06;5046220;28;70090;-33
2024/03/24 03:33:37;;;;;;;10.05;8.57;;;;;;;32.27;79.24;101095.47;5030619;28;66630;-35
2024/03/24 03:36:07;;;;;;;9.73;8.85;;;;;;;32.30;79.41;101094.19;5046674;28;70476;-33
2024/03/24 03:38:36;;;;;;;10.00;9.10;;;;;;;32.30;78.85;101080.63;5028308;28;65306;-34
2024/03/24 03:41:06;;;;;;;34.67;9.20;;;;;;;32.34;79.00;101076.38;5046269;28;69515;-36
2024/03/24 03:43:35;;;;;;;24.77;10.07;;;;;;;32.38;79.02;101082.22;5030884;28;65909;-32
2024/03/24 03:46:04;;;;;;;24.05;9.75;;;;;;;32.41;79.02;101087.19;5023007;28;68995;-35
2024/03/24 03:48:33;;;;;;;25.30;8.73;;;;;;;32.40;79.80;101072.78;5020865;28;66792;-33
2024/03/24 03:51:07;;;;;;;18.58;9.45;;;;;;;32.35;80.55;101082.66;5024836;28;70467;-34
2024/03/24 03:53:37;;;;;;;24.70;9.00;;;;;;;32.28;80.99;101072.69;5019643;28;66806;-32
2024/03/24 03:56:07;;;;;;;18.23;9.40;;;;;;;32.35;80.90;101083.50;5012804;28;70872;-35
2024/03/24 03:58:36;;;;;;;17.85;9.23;;;;;;;32.22;81.17;101048.34;5031559;28;66339;-37
2024/03/24 04:01:04;;;;;;;17.55;9.48;;;;;;;32.34;81.27;101064.69;5018597;28;70278;-36
2024/03/24 04:03:35;;;;;;;10.90;8.98;;;;;;;32.38;81.14;101065.91;5032785;28;65766;-36
2024/03/24 04:06:04;;;;;;;13.65;8.40;;;;;;;32.41;81.28;101066.28;5032419;28;69380;-34
2024/03/24 04:08:33;;;;;;;13.95;8.40;;;;;;;32.43;81.21;101066.91;5026415;28;66705;-34
2024/03/24 04:11:02;;;;;;;11.52;8.18;;;;;;;32.11;80.89;101011.09;5024960;28;69900;-34
2024/03/24 04:13:31;;;;;;;10.30;8.60;;;;;;;32.45;81.31;101056.63;5030311;28;66521;-34
2024/03/24 04:15:59;;;;;;;12.45;8.77;;;;;;;32.50;81.27;101064.13;5029791;28;70104;-34
2024/03/24 04:18:28;;;;;;;9.45;8.20;;;;;;;32.52;81.15;101061.19;5048463;28;66257;-36
2024/03/24 04:21:00;;;;;;;9.38;8.52;;;;;;;32.55;81.17;101058.03;5044019;28;70011;-35
2024/03/24 04:23:30;;;;;;;8.52;7.72;;;;;;;32.55;81.15;101049.88;5046311;28;65664;-35
2024/03/24 04:25:59;;;;;;;9.00;8.10;;;;;;;32.60;81.25;101050.03;5028755;28;70025;-33
2024/03/24 04:28:28;;;;;;;8.32;7.57;;;;;;;32.59;81.22;101038.31;5027913;28;66388;-32
2024/03/24 04:30:56;;;;;;;13.90;7.78;;;;;;;32.62;81.18;101040.56;5011450;28;70830;-32
2024/03/24 04:33:26;;;;;;;9.57;8.07;;;;;;;32.69;80.77;101041.31;5026351;28;66667;-34
2024/03/24 04:35:55;;;;;;;8.45;7.85;;;;;;;32.68;81.06;101033.38;5042441;28;70577;-35
2024/03/24 04:38:24;;;;;;;8.57;7.88;;;;;;;32.69;80.92;101029.63;5006573;28;66406;-32
2024/03/24 04:40:53;;;;;;;11.43;7.93;;;;;;;32.74;80.44;101018.91;5022896;28;69993;-33
2024/03/24 04:43:22;;;;;;;9.73;8.82;;;;;;;32.75;80.65;101023.28;5033635;28;65328;-34
2024/03/24 04:45:51;;;;;;;11.48;9.40;;;;;;;32.82;80.42;101015.88;5042930;28;70180;-33
2024/03/24 04:48:27;;;;;;;15.18;8.82;;;;;;;32.58;80.90;100976.09;5021692;28;65931;-33
2024/03/24 04:50:58;;;;;;;12.20;9.50;;;;;;;32.80;81.11;101007.13;5045486;28;69206;-34
2024/03/24 04:53:27;;;;;;;17.63;10.63;;;;;;;32.87;80.70;100988.81;5017937;28;66709;-36
2024/03/24 04:55:56;;;;;;;10.32;9.55;;;;;;;32.89;80.46;100986.72;5019600;28;69270;-33
2024/03/24 04:58:25;;;;;;;13.50;10.35;;;;;;;32.89;80.45;100986.72;5042111;28;65926;-33
2024/03/24 05:00:54;;;;;;;10.85;10.05;;;;;;;32.92;80.12;100980.81;5021142;28;70401;-32
2024/03/24 05:03:24;;;;;;;19.63;10.90;;;;;;;32.92;79.91;100975.38;5022866;28;66508;-33
2024/03/24 05:05:53;;;;;;;12.20;11.13;;;;;;;32.85;79.59;100955.66;5017710;28;69318;-34
2024/03/24 05:08:22;;;;;;;12.95;11.68;;;;;;;32.93;79.54;100968.91;5025158;28;65981;-35
2024/03/24 05:10:51;;;;;;;12.85;11.55;;;;;;;33.03;79.29;100970.25;5005665;28;70442;-32
2024/03/24 05:13:21;;;;;;;13.55;12.35;;;;;;;33.05;79.48;100968.13;5037496;28;66385;-33
2024/03/24 05:15:53;;;;;;;13.98;12.73;;;;;;;33.07;79.60;100952.41;5039243;28;69864;-34
2024/03/24 05:18:22;;;;;;;15.48;12.77;;;;;;;33.08;79.41;100951.34;5023865;28;66455;-33
2024/03/24 05:20:51;;;;;;;13.65;12.43;;;;;;;33.12;79.28;100941.66;5049931;28;70359;-34
2024/03/24 05:23:20;;;;;;;15.52;13.82;;;;;;;33.12;79.29;100938.94;5018814;28;66215;-33
2024/03/24 05:25:52;;;;;;;16.80;15.15;;;;;;;33.15;78.92;100935.75;5030767;28;70130;-32
2024/03/24 05:28:21;;;;;;;17.58;14.77;;;;;;;33.20;78.96;100944.03;5029371;28;66637;-35
2024/03/24 05:30:53;;;;;;;15.20;13.93;;;;;;;33.24;78.96;100941.66;5030717;28;70192;-33
2024/03/24 05:33:21;;;;;;;;;;;;;;;33.17;79.06;100938.25;5027713;28;66460;-33
2024/03/24 05:36:01;;;;;;;19.13;17.33;;;;;;;33.18;78.64;100921.69;5033830;28;70363;-33
2024/03/24 05:38:33;;;;;;;23.02;20.88;;;;;;;33.28;78.22;100932.81;5045281;28;66483;-32
2024/03/24 05:41:04;;;;;;;23.08;20.88;;;;;;;33.32;78.27;100923.13;5031218;28;69485;-34
2024/03/24 05:43:33;;;;;;;27.60;24.73;;;;;;;33.34;77.93;100912.81;5030072;28;66027;-33
2024/03/24 05:46:04;;;;;;;29.50;26.70;;;;;;;33.34;77.94;100914.72;5029520;28;70786;-34
2024/03/24 05:48:36;;;;;;;28.27;25.55;;;;;;;33.37;77.47;100906.91;5030132;28;65263;-35
2024/03/24 05:51:08;;;;;;;27.80;25.20;;;;;;;33.40;77.64;100904.78;5023254;28;69702;-37
2024/03/24 05:53:38;;;;;;;29.45;26.02;;;;;;;33.41;77.59;100910.00;5034759;28;66049;-34
2024/03/24 05:56:07;;;;;;;28.67;25.92;;;;;;;33.43;76.92;100893.44;5032309;28;70923;-33
2024/03/24 05:58:36;;;;;;;31.05;28.27;;;;;;;33.38;77.49;100886.84;5021063;28;65745;-37
2024/03/24 06:01:05;;;;;;;33.38;30.08;;;;;;;33.43;77.06;100871.69;5031729;28;70216;-35
2024/03/24 06:03:34;;;;;;;34.80;31.17;;;;;;;33.42;77.69;100886.34;5029094;28;66397;-32
2024/03/24 06:06:04;;;;;;;33.22;29.33;;;;;;;33.43;76.18;100883.38;5032503;28;69801;-36
2024/03/24 06:08:34;;;;;;;32.08;26.90;;;;;;;33.41;73.30;100884.72;5042034;28;66220;-34
2024/03/24 06:11:03;;;;;;;47.30;26.15;;;;;;;33.37;71.60;100871.56;5015077;28;70038;-32
2024/03/24 06:13:32;;;;;;;27.50;24.58;;;;;;;33.25;70.34;100869.94;5030644;28;66430;-33
2024/03/24 06:16:01;;;;;;;24.98;22.33;;;;;;;33.19;67.99;100871.72;5043239;28;70053;-33
2024/03/24 06:18:30;;;;;;;23.80;21.30;;;;;;;33.09;67.44;100871.47;5026017;28;66426;-34
2024/03/24 06:21:00;;;;;;;20.52;18.88;;;;;;;33.07;65.78;100870.88;5045485;28;69959;-35
2024/03/24 06:23:29;;;;;;;20.85;19.02;;;;;;;32.92;64.99;100860.44;5035712;28;66587;-32
2024/03/24 06:25:58;;;;;;;19.90;18.20;;;;;;;32.94;64.12;100856.41;5029256;28;70846;-34
2024/03/24 06:28:27;;;;;;;19.70;17.85;;;;;;;32.79;62.93;100853.34;5017157;28;66584;-34
2024/03/24 06:30:55;;;;;;;17.63;16.02;;;;;;;32.84;63.90;100858.88;5012788;28;70552;-34
2024/03/24 06:33:24;;;;;;;16.65;15.18;;;;;;;32.82;62.72;100847.44;5029934;28;66056;-34
2024/03/24 06:35:53;;;;;;;15.65;14.27;;;;;;;32.84;62.74;100848.00;5040526;28;70539;-33
2024/03/24 06:38:23;;;;;;;15.98;14.88;;;;;;;32.81;61.79;100843.06;5032047;28;66762;-33
2024/03/24 06:40:51;;;;;;;15.10;13.93;;;;;;;32.74;62.54;100842.34;5030799;28;69088;-36
2024/03/24 06:43:30;;;;;;;13.32;12.32;;;;;;;32.72;62.05;100822.75;5047573;28;65617;-34
2024/03/24 06:45:59;;;;;;;12.82;12.00;;;;;;;32.78;62.04;100832.66;5015194;28;70931;-33
2024/03/24 06:48:28;;;;;;;12.27;11.30;;;;;;;32.76;61.13;100829.34;5041688;28;66062;-32
2024/03/24 06:50:57;;;;;;;11.77;11.07;;;;;;;32.72;60.47;100839.03;5031710;28;69633;-34
2024/03/24 06:53:27;;;;;;;11.68;10.98;;;;;;;32.67;61.18;100818.00;5024232;28;67058;-33
2024/03/24 06:55:56;;;;;;;11.35;10.55;;;;;;;32.75;61.16;100818.72;5027136;28;70722;-33
2024/03/24 06:58:25;;;;;;;10.70;9.82;;;;;;;32.77;60.31;100828.31;5048797;28;66660;-34
2024/03/24 07:00:54;;;;;;;9.82;9.32;;;;;;;32.82;61.71;100823.00;5028616;28;69353;-32
2024/03/24 07:03:23;;;;;;;9.70;9.20;;;;;;;32.80;59.98;100830.53;5021138;28;66874;-35
2024/03/24 07:05:52;;;;;;;8.52;8.07;;;;;;;32.76;59.33;100823.91;4939961;28;2440937;-33
2024/03/24 07:08:22;;;;;;;9.93;9.13;;;;;;;32.84;60.92;100826.28;5027255;28;65697;-34
2024/03/24 07:10:52;;;;;;;7.93;7.43;;;;;;;32.63;60.31;100777.97;5031330;28;69746;-33
2024/03/24 07:13:21;;;;;;;7.78;7.38;;;;;;;32.85;60.47;100822.53;5030885;28;66540;-37
2024/03/24 07:15:50;;;;;;;8.48;7.97;;;;;;;32.82;59.92;100811.28;5014641;28;69708;-36
2024/03/24 07:18:18;;;;;;;8.07;7.57;;;;;;;32.92;60.05;100814.25;5031828;28;65483;-34
2024/03/24 07:20:48;;;;;;;7.88;7.28;;;;;;;32.84;59.55;100793.69;5027817;28;70323;-34
2024/03/24 07:23:16;;;;;;;7.55;7.05;;;;;;;32.93;58.95;100805.00;5030595;28;66322;-34
2024/03/24 07:25:46;;;;;;;7.38;6.68;;;;;;;32.98;59.41;100801.59;5023510;28;70148;-33
2024/03/24 07:28:15;;;;;;;6.97;6.28;;;;;;;32.86;59.31;100807.03;5029454;28;65697;-34
2024/03/24 07:30:44;;;;;;;6.32;5.93;;;;;;;32.99;59.19;100800.53;4990618;28;69131;-32
2024/03/24 07:33:14;;;;;;;6.25;5.85;;;;;;;33.07;58.66;100808.34;5049699;28;66655;-34
2024/03/24 07:35:43;;;;;;;6.30;5.80;;;;;;;33.02;58.43;100797.41;5024246;28;70451;-34
2024/03/24 07:38:12;;;;;;;9.20;6.75;;;;;;;33.09;58.96;100800.81;5017059;28;65243;-34
2024/03/24 07:40:41;;;;;;;7.25;6.55;;;;;;;33.09;59.13;100789.94;5022240;28;70716;-34
2024/03/24 07:43:11;;;;;;;6.88;6.25;;;;;;;33.14;59.27;100803.63;5024990;28;65973;-33
2024/03/24 07:45:41;;;;;;;6.80;5.60;;;;;;;33.23;57.87;100796.75;5027582;28;69896;-32
2024/03/24 07:48:10;;;;;;;7.82;5.68;;;;;;;33.27;58.90;100792.53;5030084;28;66848;-32
2024/03/24 07:50:40;;;;;;;15.75;6.07;;;;;;;33.25;58.59;100793.81;5030138;28;70220;-33
2024/03/24 07:53:11;;;;;;;13.30;5.63;;;;;;;33.28;58.20;100791.44;4999152;28;66000;-34
2024/03/24 07:55:43;;;;;;;7.55;5.88;;;;;;;33.19;58.77;100768.41;5028216;28;69474;-33
2024/03/24 07:58:12;;;;;;;15.23;6.18;;;;;;;33.35;58.26;100789.44;5027752;28;66309;-35
2024/03/24 08:00:41;;;;;;;8.38;6.68;;;;;;;33.44;61.63;100798.03;5030166;28;70253;-35
2024/03/24 08:03:10;;;;;;;17.20;6.40;;;;;;;33.52;62.18;100796.84;5035377;28;66317;-33
2024/03/24 08:05:41;;;;;;;19.23;6.72;;;;;;;33.59;61.64;100806.53;5023801;28;69710;-33
2024/03/24 08:08:10;;;;;;;6.95;6.25;;;;;;;33.64;61.35;100792.22;5025118;28;65728;-32
2024/03/24 08:10:40;;;;;;;7.22;5.78;;;;;;;33.61;59.98;100798.16;5030899;28;70240;-33
2024/03/24 08:13:09;;;;;;;11.98;5.53;;;;;;;33.74;59.28;100800.59;5022154;28;65330;-35
2024/03/24 08:15:38;;;;;;;17.40;5.80;;;;;;;33.74;59.03;100800.59;5053264;28;69622;-33
2024/03/24 08:18:07;;;;;;;16.88;5.40;;;;;;;33.74;58.69;100794.31;5032753;28;66557;-32
2024/03/24 08:20:43;;;;;;;25.15;5.38;;;;;;;33.83;59.02;100797.50;5035844;28;69523;-33
2024/03/24 08:23:18;;;;;;;8.57;4.53;;;;;;;33.93;57.33;100794.94;5023220;28;66550;-33
2024/03/24 08:25:48;;;;;;;11.63;4.70;;;;;;;34.02;58.01;100798.94;5014745;28;70458;-34
2024/03/24 08:28:19;;;;;;;17.05;4.60;;;;;;;34.02;59.75;100793.50;5024719;28;66202;-37
2024/03/24 08:30:48;;;;;;;30.42;4.72;;;;;;;34.01;62.74;100800.00;5025799;28;70006;-33
2024/03/24 08:33:17;;;;;;;20.15;5.80;;;;;;;34.18;66.35;100798.16;5025248;28;66190;-35
2024/03/24 08:35:47;;;;;;;17.05;5.22;;;;;;;34.47;65.96;100800.84;5027039;28;70414;-35
2024/03/24 08:38:15;;;;;;;6.47;5.72;;;;;;;34.57;67.19;100787.41;5022511;28;66220;-36
2024/03/24 08:40:44;;;;;;;7.78;5.45;;;;;;;34.75;67.53;100780.06;5030758;28;69746;-34
2024/03/24 08:43:13;;;;;;;8.75;5.25;;;;;;;34.85;67.73;100780.22;5024221;28;66303;-35
2024/03/24 08:45:43;;;;;;;9.27;5.15;;;;;;;34.93;68.06;100779.78;5019855;28;70498;-38
2024/03/24 08:48:11;;;;;;;9.55;5.57;;;;;;;35.07;68.24;100783.84;5013987;28;66039;-32
2024/03/24 08:50:42;;;;;;;9.25;5.60;;;;;;;35.17;68.43;100783.16;5045658;28;70177;-35
2024/03/24 08:53:12;;;;;;;9.60;5.10;;;;;;;35.28;68.09;100778.66;5050924;28;66477;-33
2024/03/24 08:55:40;;;;;;;7.10;4.65;;;;;;;35.36;68.92;100780.97;5030215;28;70653;-33
2024/03/24 08:58:09;;;;;;;10.73;5.45;;;;;;;35.48;68.49;100787.09;5049638;28;65500;-34
2024/03/24 09:00:40;;;;;;;7.53;5.55;;;;;;;35.55;68.61;100795.94;5028071;28;69344;-35
2024/03/24 09:03:09;;;;;;;5.93;5.03;;;;;;;35.56;68.91;100785.88;5020491;28;65940;-33
2024/03/24 09:05:37;;;;;;;10.73;5.05;;;;;;;35.72;68.39;100786.88;5030831;28;70468;-34
2024/03/24 09:08:07;;;;;;;7.85;5.82;;;;;;;35.75;69.13;100789.09;5019596;28;66460;-34
2024/03/24 09:10:35;;;;;;;7.43;4.40;;;;;;;35.90;68.83;100794.69;5020509;28;70697;-35
2024/03/24 09:13:05;;;;;;;4.72;4.32;;;;;;;35.87;68.63;100769.84;5019898;28;66366;-34
2024/03/24 09:15:34;;;;;;;9.10;5.00;;;;;;;36.00;68.48;100778.44;5030897;28;71328;-33
2024/03/24 09:18:03;;;;;;;10.18;4.75;;;;;;;36.08;68.27;100788.09;5018814;28;65585;-37
2024/03/24 09:20:35;;;;;;;11.10;4.82;;;;;;;36.15;67.86;100785.16;5032842;28;68635;-36
2024/03/24 09:23:06;;;;;;;;;;;;;;;36.26;67.84;100794.25;5032443;28;65751;-35
2024/03/24 09:25:39;;;;;;;9.38;6.18;;;;;;;36.29;68.01;100772.72;5025224;28;70362;-34
2024/03/24 09:28:08;;;;;;;18.45;8.98;;;;;;;36.39;68.31;100791.09;5037985;28;66833;-35
2024/03/24 09:30:37;;;;;;;15.20;7.28;;;;;;;36.39;68.10;100783.72;5026860;28;70292;-33
2024/03/24 09:33:06;;;;;;;12.35;6.28;;;;;;;36.45;68.32;100785.41;5026149;28;66762;-34
2024/03/24 09:35:35;;;;;;;17.10;5.95;;;;;;;36.63;68.39;100791.59;5022205;28;69888;-32
2024/03/24 09:38:04;;;;;;;11.43;6.32;;;;;;;36.68;68.96;100794.34;5028265;28;64897;-32
2024/03/24 09:40:32;;;;;;;12.45;5.97;;;;;;;36.64;68.63;100787.78;4994112;28;69443;-31
2024/03/24 09:43:02;;;;;;;9.30;6.32;;;;;;;36.74;68.18;100800.69;5022909;28;65541;-31
2024/03/24 09:45:33;;;;;;;10.02;5.05;;;;;;;36.78;68.54;100801.81;5024230;28;70214;-31
2024/03/24 09:48:11;;;;;;;7.60;5.30;;;;;;;36.72;68.77;100791.91;5022900;28;65986;-32
2024/03/24 09:50:41;;;;;;;9.63;5.15;;;;;;;36.83;68.65;100805.41;5011140;28;70329;-31
2024/03/24 09:53:10;;;;;;;17.45;5.53;;;;;;;36.82;69.11;100806.47;5022253;28;66535;-32
2024/03/24 09:55:39;;;;;;;8.80;5.63;;;;;;;36.86;67.92;100793.94;5051204;28;69883;-32
2024/03/24 09:58:10;;;;;;;6.45;5.35;;;;;;;36.93;67.57;100803.81;5030799;28;66278;-33
2024/03/24 10:00:39;;;;;;;7.85;5.22;;;;;;;36.84;67.82;100812.50;5025177;28;69627;-31
2024/03/24 10:03:08;;;;;;;6.60;4.95;;;;;;;36.85;66.70;100811.41;5039442;28;66952;-34
2024/03/24 10:05:37;;;;;;;7.90;4.80;;;;;;;36.76;63.78;100813.00;5026048;28;70407;-34
2024/03/24 10:08:06;;;;;;;6.60;4.95;;;;;;;36.81;64.83;100823.97;5029690;28;65953;-33
2024/03/24 10:10:36;;;;;;;11.48;6.38;;;;;;;36.76;66.38;100820.38;5036945;28;69271;-34
2024/03/24 10:13:04;;;;;;;8.20;6.40;;;;;;;36.76;67.71;100820.38;5039996;28;66096;-33
2024/03/24 10:15:34;;;;;;;7.75;6.00;;;;;;;36.83;67.76;100821.81;5052681;28;69465;-32
2024/03/24 10:18:04;;;;;;;10.15;6.20;;;;;;;36.84;67.71;100823.44;5037879;28;65524;-34
2024/03/24 10:20:35;;;;;;;6.45;5.65;;;;;;;36.88;67.79;100824.56;5037920;28;69064;-33
2024/03/24 10:23:04;;;;;;;11.15;5.53;;;;;;;36.81;68.42;100829.44;5027696;28;65254;-33
2024/03/24 10:25:33;;;;;;;13.80;5.72;;;;;;;36.87;68.36;100827.56;5015873;28;69298;-35
2024/03/24 10:28:04;;;;;;;10.02;6.40;;;;;;;36.89;68.76;100834.44;5034893;28;65152;-34
2024/03/24 10:30:33;;;;;;;9.85;6.15;;;;;;;36.81;69.36;100837.66;5022418;28;69454;-33
2024/03/24 10:33:02;;;;;;;15.57;6.32;;;;;;;36.82;69.63;100827.53;5020122;28;66147;-34
2024/03/24 10:35:32;;;;;;;12.48;6.45;;;;;;;36.78;69.93;100840.09;5022820;28;70240;-33
2024/03/24 10:38:00;;;;;;;13.27;6.50;;;;;;;36.89;69.03;100841.81;5023733;28;66252;-32
2024/03/24 10:40:30;;;;;;;13.05;6.63;;;;;;;36.72;70.31;100831.03;5013305;28;70119;-34
2024/03/24 10:43:02;;;;;;;11.43;6.72;;;;;;;36.84;69.99;100845.31;5024865;28;66094;-37
2024/03/24 10:45:32;;;;;;;20.75;9.15;;;;;;;36.76;69.73;100837.59;5026601;28;70800;-34
2024/03/24 10:48:04;;;;;;;31.77;11.15;;;;;;;36.68;70.52;100849.84;5024663;28;66593;-33
2024/03/24 10:50:37;;;;;;;18.25;9.23;;;;;;;36.68;70.19;100851.75;5024231;28;70514;-32
2024/03/24 10:53:13;;;;;;;16.30;8.48;;;;;;;36.48;70.03;100819.59;5027339;28;66663;-31
2024/03/24 10:55:44;;;;;;;11.60;8.48;;;;;;;36.58;70.08;100849.78;5051255;28;68926;-31
2024/03/24 10:58:14;;;;;;;17.88;8.95;;;;;;;36.63;69.60;100859.91;5021581;28;65532;-34
2024/03/24 11:00:45;;;;;;;19.88;9.75;;;;;;;36.59;69.67;100858.78;5022076;28;70594;-34
2024/03/24 11:03:18;;;;;;;22.30;9.98;;;;;;;36.41;70.11;100841.66;5021552;28;65684;-34
2024/03/24 11:05:49;;;;;;;18.02;11.50;;;;;;;36.46;69.90;100869.00;4997154;28;70187;-32
2024/03/24 11:08:23;;;;;;;28.63;12.38;;;;;;;36.44;70.29;100857.53;5030408;28;66340;-34
2024/03/24 11:10:56;;;;;;;14.95;9.57;;;;;;;36.41;70.36;100869.00;5028910;28;69576;-33
2024/03/24 11:13:29;;;;;;;10.95;8.00;;;;;;;36.24;69.81;100840.94;5026552;28;66644;-33
2024/03/24 11:15:59;;;;;;;11.25;7.22;;;;;;;36.31;70.07;100868.06;5028616;28;69199;-33
2024/03/24 11:18:31;;;;;;;13.40;7.82;;;;;;;36.10;70.49;100839.69;5025303;28;66733;-34
2024/03/24 11:21:07;;;;;;;14.77;6.82;;;;;;;36.25;70.55;100878.09;5040510;28;69035;-33
2024/03/24 11:23:38;;;;;;;9.73;6.97;;;;;;;36.09;70.54;100871.66;5023509;28;65621;-32
2024/03/24 11:26:14;;;;;;;8.70;6.93;;;;;;;36.12;70.19;100875.78;5033329;28;70168;-33
2024/03/24 11:28:50;;;;;;;13.98;7.80;;;;;;;36.03;71.15;100884.38;5009831;28;65919;-37